Aviation Digital Data Service (ADDS)

Output produced by TAFs form (2050 UTC 23 January 2017)
found at http://www.aviationweather.gov/adds/tafs/
 
KPSF 231738Z 2318/2418 08010G20KT P6SM BKN015 OVC025 
     FM240000 01014G19KT 3SM -SN BR BKN010 OVC015 
     FM240400 01015G23KT 1SM -FZRASNPL BR VV009 WS020/07045KT 
     FM241300 35010KT 3SM -RASN BR BKN011 OVC020